createdAt,value
2017-07-01T00:00:12.604Z,44.38
2017-07-01T00:02:40.833Z,44.41
2017-07-01T00:05:08.487Z,44.13
2017-07-01T00:07:36.079Z,44.17
2017-07-01T00:10:03.627Z,44.64
2017-07-01T00:12:31.196Z,44.62
2017-07-01T00:14:58.769Z,44.55
2017-07-01T00:17:26.283Z,45.65
2017-07-01T00:19:54.397Z,45.79
2017-07-01T00:22:22.055Z,45.15
2017-07-01T00:24:49.614Z,45.02
2017-07-01T00:27:24.384Z,45.60
2017-07-01T00:29:52.001Z,45.87
2017-07-01T00:32:19.645Z,45.60
2017-07-01T00:34:47.232Z,45.38
2017-07-01T00:37:16.565Z,45.61
2017-07-01T00:39:45.127Z,44.67
2017-07-01T00:42:12.697Z,44.93
2017-07-01T00:44:40.333Z,45.53
2017-07-01T00:47:07.930Z,45.57
2017-07-01T00:49:35.524Z,45.88
2017-07-01T00:52:03.125Z,46.17
2017-07-01T00:54:30.729Z,46.00
2017-07-01T00:56:58.292Z,45.80
2017-07-01T00:59:25.812Z,45.44
2017-07-01T01:01:53.413Z,45.60
2017-07-01T01:04:20.959Z,45.54
2017-07-01T01:06:48.497Z,45.67
2017-07-01T01:09:16.998Z,44.99
2017-07-01T01:11:44.620Z,45.71
2017-07-01T01:14:12.445Z,46.97
2017-07-01T01:16:40.067Z,47.12
2017-07-01T01:19:07.628Z,47.00
2017-07-01T01:21:35.853Z,46.74
2017-07-01T01:24:03.414Z,47.11
2017-07-01T01:26:30.954Z,47.05
2017-07-01T01:28:58.474Z,46.80
2017-07-01T01:31:26.084Z,46.78
2017-07-01T01:33:53.613Z,47.42
2017-07-01T01:36:21.161Z,47.29
2017-07-01T01:38:48.720Z,47.91
2017-07-01T01:41:16.287Z,47.16
2017-07-01T01:43:43.863Z,47.15
2017-07-01T01:46:11.486Z,47.02
2017-07-01T01:48:39.051Z,47.12
2017-07-01T01:51:06.851Z,47.29
2017-07-01T01:53:34.447Z,47.55
2017-07-01T01:56:02.070Z,47.42
2017-07-01T01:58:29.631Z,47.75
2017-07-01T02:00:57.247Z,47.78
2017-07-01T02:03:25.049Z,47.94
2017-07-01T02:05:52.630Z,47.52
2017-07-01T02:08:20.253Z,47.56
2017-07-01T02:10:49.861Z,48.26
2017-07-01T02:13:17.420Z,48.74
2017-07-01T02:15:50.767Z,49.34
2017-07-01T02:18:26.321Z,49.57
2017-07-01T02:21:10.727Z,49.93
2017-07-01T02:23:49.808Z,49.85
2017-07-01T02:26:23.958Z,49.98
2017-07-01T02:28:56.237Z,49.75
2017-07-01T02:31:24.885Z,49.31
2017-07-01T02:33:54.867Z,49.86
2017-07-01T02:36:25.049Z,49.94
2017-07-01T02:38:53.977Z,49.91
2017-07-01T02:41:22.619Z,49.66
2017-07-01T02:43:51.114Z,50.37
2017-07-01T02:46:36.066Z,51.14
2017-07-01T02:49:21.965Z,51.22
2017-07-01T02:52:02.476Z,51.70
2017-07-01T02:54:35.063Z,52.18
2017-07-01T02:57:03.048Z,52.07
2017-07-01T02:59:33.461Z,51.97
2017-07-01T03:02:01.597Z,51.80
2017-07-01T03:04:30.746Z,51.62
2017-07-01T03:06:59.815Z,51.50
2017-07-01T03:09:28.427Z,51.09
2017-07-01T03:11:57.405Z,51.26
2017-07-01T03:14:26.153Z,51.59
2017-07-01T03:16:55.048Z,51.65
2017-07-01T03:19:24.990Z,51.39
2017-07-01T03:21:52.982Z,51.41
2017-07-01T03:24:22.320Z,51.47
2017-07-01T03:26:51.022Z,51.39
2017-07-01T03:29:26.629Z,51.26
2017-07-01T03:31:55.858Z,51.20
2017-07-01T03:34:25.100Z,51.63
2017-07-01T03:37:00.584Z,51.59
2017-07-01T03:39:40.623Z,51.64
2017-07-01T03:42:17.746Z,51.35
2017-07-01T03:44:57.836Z,51.26
2017-07-01T03:47:32.766Z,51.23
2017-07-01T03:50:02.480Z,51.06
2017-07-01T03:52:32.130Z,50.64
2017-07-01T03:55:00.728Z,51.03
2017-07-01T03:57:40.992Z,51.19
2017-07-01T04:00:09.431Z,50.79
2017-07-01T04:02:39.500Z,50.33
2017-07-01T04:05:07.678Z,50.27
2017-07-01T04:07:35.831Z,50.11
2017-07-01T04:10:08.274Z,50.49
2017-07-01T04:12:36.884Z,50.84
2017-07-01T04:15:05.019Z,51.17
2017-07-01T04:17:32.591Z,50.97
2017-07-01T04:20:01.161Z,50.23
2017-07-01T04:22:36.289Z,50.54
2017-07-01T04:25:05.298Z,50.97
2017-07-01T04:27:37.972Z,50.39
2017-07-01T04:30:08.058Z,51.02
2017-07-01T04:32:36.593Z,51.11
2017-07-01T04:35:05.234Z,50.61
2017-07-01T04:37:33.737Z,49.65
2017-07-01T04:40:07.719Z,49.97
2017-07-01T04:42:38.010Z,49.38
2017-07-01T04:45:10.403Z,49.66
2017-07-01T04:47:58.944Z,50.32
2017-07-01T04:50:40.905Z,50.13
2017-07-01T04:53:09.836Z,50.21
2017-07-01T04:55:39.283Z,49.84
2017-07-01T04:58:06.837Z,49.06
2017-07-01T05:00:49.326Z,48.40
2017-07-01T05:03:16.930Z,48.90
2017-07-01T05:05:46.283Z,48.78
2017-07-01T05:08:16.150Z,48.33
2017-07-01T05:10:54.587Z,48.17
2017-07-01T05:13:22.222Z,48.78
2017-07-01T05:15:53.579Z,48.76
2017-07-01T05:18:21.159Z,48.82
2017-07-01T05:20:49.599Z,49.23
2017-07-01T05:23:22.807Z,48.80
2017-07-01T05:25:59.786Z,49.02
2017-07-01T05:28:28.170Z,48.37
2017-07-01T05:31:29.362Z,47.83
2017-07-01T05:33:57.653Z,47.31
2017-07-01T05:36:46.473Z,47.25
2017-07-01T05:39:18.498Z,46.75
2017-07-01T05:42:22.604Z,46.42
2017-07-01T05:44:53.925Z,46.36
2017-07-01T05:47:22.955Z,46.18
2017-07-01T05:49:50.556Z,45.76
2017-07-01T05:52:22.033Z,45.04
2017-07-01T05:54:49.731Z,45.40
2017-07-01T05:57:17.408Z,45.32
2017-07-01T05:59:44.987Z,44.23
2017-07-01T06:02:17.415Z,44.28
2017-07-01T06:04:45.030Z,44.11
2017-07-01T06:07:12.884Z,43.89
2017-07-01T06:09:50.824Z,43.83
2017-07-01T06:12:32.809Z,43.08
2017-07-01T06:15:18.547Z,42.70
2017-07-01T06:17:49.963Z,42.35
2017-07-01T06:20:43.443Z,42.01
2017-07-01T06:23:12.647Z,40.95
2017-07-01T06:26:14.333Z,41.51
2017-07-01T06:29:07.150Z,41.20
2017-07-01T06:31:42.955Z,41.17
2017-07-01T06:34:10.931Z,40.08
2017-07-01T06:36:39.164Z,39.21
2017-07-01T06:39:08.523Z,39.15
2017-07-01T06:41:39.782Z,39.18
2017-07-01T06:44:23.095Z,38.90
2017-07-01T06:47:00.068Z,38.87
2017-07-01T06:49:28.440Z,38.98
2017-07-01T06:52:00.970Z,38.50
2017-07-01T06:54:29.876Z,38.16
2017-07-01T06:56:59.390Z,38.41
2017-07-01T06:59:39.267Z,36.06
2017-07-01T07:02:08.216Z,36.56
2017-07-01T07:04:42.141Z,36.43
2017-07-01T07:07:10.233Z,34.40
2017-07-01T07:09:49.873Z,34.81
2017-07-01T07:12:21.298Z,34.70
2017-07-01T07:14:49.238Z,34.55
2017-07-01T07:17:33.059Z,34.95
2017-07-01T07:20:00.631Z,33.93
2017-07-01T07:22:28.238Z,33.40
2017-07-01T07:25:17.941Z,32.71
2017-07-01T07:27:46.314Z,32.31
2017-07-01T07:30:14.141Z,32.85
2017-07-01T07:32:41.889Z,33.53
2017-07-01T07:35:09.460Z,33.91
2017-07-01T07:37:37.242Z,32.39
2017-07-01T07:40:04.909Z,33.11
2017-07-01T07:42:32.565Z,33.18
2017-07-01T07:45:00.207Z,32.87
2017-07-01T07:47:28.139Z,32.36
2017-07-01T07:50:05.295Z,32.48
2017-07-01T07:52:34.531Z,32.15
2017-07-01T07:55:02.088Z,32.71
2017-07-01T07:57:30.958Z,31.66
2017-07-01T07:59:58.503Z,30.33
2017-07-01T08:02:26.182Z,30.14
2017-07-01T08:04:53.931Z,30.30
2017-07-01T08:07:21.588Z,29.34
2017-07-01T08:09:49.273Z,29.11
2017-07-01T08:12:16.894Z,29.75
2017-07-01T08:14:44.451Z,27.88
2017-07-01T08:17:12.044Z,27.49
2017-07-01T08:19:39.837Z,27.87
2017-07-01T08:22:08.571Z,27.40
2017-07-01T08:24:36.634Z,27.17
2017-07-01T08:27:04.252Z,25.89
2017-07-01T08:29:32.223Z,27.08
2017-07-01T08:31:59.894Z,25.60
2017-07-01T08:34:27.502Z,24.68
2017-07-01T08:36:55.075Z,25.56
2017-07-01T08:39:22.732Z,24.68
2017-07-01T08:41:50.332Z,24.40
2017-07-01T08:44:18.012Z,24.51
2017-07-01T08:46:46.102Z,24.48
2017-07-01T08:49:13.670Z,23.66
2017-07-01T08:51:41.350Z,23.00
2017-07-01T08:54:08.957Z,23.66
2017-07-01T08:56:37.233Z,24.81
2017-07-01T08:59:06.118Z,24.89
2017-07-01T09:01:35.169Z,23.88
2017-07-01T09:04:04.528Z,19.06
2017-07-01T09:06:32.128Z,18.26
2017-07-01T09:09:00.362Z,16.82
2017-07-01T09:11:28.585Z,18.98
2017-07-01T09:13:56.188Z,20.02
2017-07-01T09:16:23.770Z,18.76
2017-07-01T09:18:51.293Z,15.50
2017-07-01T09:21:19.083Z,17.29
2017-07-01T09:23:46.797Z,17.80
2017-07-01T09:26:14.395Z,17.50
2017-07-01T09:28:41.940Z,15.94
2017-07-01T09:31:10.458Z,16.89
2017-07-01T09:33:37.999Z,16.51
2017-07-01T09:36:05.549Z,16.00
2017-07-01T09:38:33.137Z,15.99
2017-07-01T09:41:00.765Z,15.69
2017-07-01T09:43:28.567Z,15.57
2017-07-01T09:45:56.318Z,15.59
2017-07-01T09:48:24.109Z,16.10
2017-07-01T09:50:51.633Z,15.87
2017-07-01T09:53:19.211Z,16.63
2017-07-01T09:55:46.761Z,16.41
2017-07-01T09:58:14.293Z,16.66
2017-07-01T10:00:41.848Z,16.83
2017-07-01T10:03:09.665Z,16.33
2017-07-01T10:05:37.256Z,16.73
2017-07-01T10:08:05.040Z,17.71
2017-07-01T10:10:32.666Z,17.29
2017-07-01T10:13:00.219Z,17.43
2017-07-01T10:15:27.837Z,16.62
2017-07-01T10:17:55.441Z,17.04
2017-07-01T10:20:23.174Z,17.66
2017-07-01T10:22:50.806Z,17.14
2017-07-01T10:25:18.348Z,17.26
2017-07-01T10:27:45.914Z,17.09
2017-07-01T10:30:13.546Z,17.07
2017-07-01T10:32:41.658Z,17.56
2017-07-01T10:35:09.401Z,18.00
2017-07-01T10:37:36.970Z,17.74
2017-07-01T10:40:04.566Z,17.59
2017-07-01T10:42:32.132Z,17.34
2017-07-01T10:44:59.710Z,16.42
2017-07-01T10:47:27.481Z,16.88
2017-07-01T10:49:55.569Z,17.58
2017-07-01T10:52:23.135Z,16.63
2017-07-01T10:54:50.886Z,16.62
2017-07-01T10:57:18.468Z,16.47
2017-07-01T10:59:46.044Z,17.12
2017-07-01T11:02:13.622Z,17.03
2017-07-01T11:04:41.202Z,16.25
2017-07-01T11:07:08.950Z,15.35
2017-07-01T11:16:39.990Z,15.13
2017-07-01T11:19:15.020Z,15.51
2017-07-01T11:31:17.996Z,15.02
2017-07-01T11:33:59.572Z,14.78
2017-07-01T11:50:05.111Z,13.89
2017-07-01T11:53:01.864Z,14.40
2017-07-01T11:58:37.342Z,14.82
2017-07-01T12:01:05.526Z,14.30
2017-07-01T12:03:33.173Z,14.16
2017-07-01T12:06:00.839Z,14.28
2017-07-01T12:08:28.821Z,14.32
2017-07-01T12:10:56.500Z,14.00
2017-07-01T12:13:24.175Z,14.95
2017-07-01T12:15:52.033Z,14.98
2017-07-01T12:18:19.702Z,15.73
2017-07-01T12:20:47.410Z,14.99
2017-07-01T12:23:15.104Z,15.35
2017-07-01T12:25:42.772Z,15.99
2017-07-01T12:28:10.426Z,15.52
2017-07-01T12:30:38.079Z,15.34
2017-07-01T12:33:06.375Z,14.74
2017-07-01T12:35:34.286Z,14.85
2017-07-01T12:38:01.967Z,15.59
2017-07-01T12:40:29.634Z,15.12
2017-07-01T12:42:57.905Z,15.27
2017-07-01T12:45:25.587Z,15.42
2017-07-01T12:47:53.700Z,15.13
2017-07-01T12:50:21.332Z,15.37
2017-07-01T12:52:49.009Z,15.76
2017-07-01T12:55:22.711Z,15.59
2017-07-01T12:57:55.284Z,15.60
2017-07-01T13:00:32.473Z,15.40
2017-07-01T13:03:07.905Z,15.33
2017-07-01T13:05:37.269Z,15.01
2017-07-01T13:08:11.454Z,15.47
2017-07-01T13:10:39.395Z,15.07
2017-07-01T13:13:07.018Z,15.45
2017-07-01T13:15:34.713Z,15.04
2017-07-01T13:18:02.611Z,15.10
2017-07-01T13:20:30.243Z,15.69
2017-07-01T13:22:57.877Z,15.32
2017-07-01T13:25:25.530Z,15.41
2017-07-01T13:27:53.141Z,15.38
2017-07-01T13:30:20.837Z,15.91
2017-07-01T13:32:48.450Z,15.60
2017-07-01T13:35:16.248Z,15.94
2017-07-01T13:37:43.868Z,15.54
2017-07-01T13:40:12.145Z,15.85
2017-07-01T13:42:39.816Z,15.94
2017-07-01T13:45:07.478Z,15.80
2017-07-01T13:47:35.076Z,15.93
2017-07-01T13:50:03.153Z,16.19
2017-07-01T13:52:30.774Z,16.46
2017-07-01T13:54:58.444Z,16.58
2017-07-01T13:57:26.071Z,16.35
2017-07-01T14:00:01.443Z,16.46
2017-07-01T14:02:29.189Z,16.87
2017-07-01T14:04:56.834Z,16.88
2017-07-01T14:07:24.706Z,16.75
2017-07-01T14:09:52.376Z,16.78
2017-07-01T14:12:20.187Z,16.76
2017-07-01T14:14:47.841Z,16.87
2017-07-01T14:17:15.513Z,16.84
2017-07-01T14:19:43.805Z,16.98
2017-07-01T14:22:11.730Z,17.08
2017-07-01T14:24:39.370Z,17.48
2017-07-01T14:27:07.009Z,17.37
2017-07-01T14:29:34.629Z,17.49
2017-07-01T14:32:02.247Z,17.14
2017-07-01T14:34:30.161Z,17.22
2017-07-01T14:36:59.161Z,17.18
2017-07-01T14:39:27.470Z,17.34
2017-07-01T14:41:55.086Z,17.68
2017-07-01T14:44:23.629Z,17.69
2017-07-01T14:46:52.138Z,17.62
2017-07-01T14:49:20.599Z,17.93
2017-07-01T14:51:48.226Z,17.97
2017-07-01T14:54:15.867Z,18.49
2017-07-01T14:56:44.335Z,18.28
2017-07-01T14:59:11.933Z,18.15
2017-07-01T15:01:39.611Z,18.39
2017-07-01T15:04:07.231Z,18.15
2017-07-01T15:06:34.860Z,18.48
2017-07-01T15:09:02.493Z,18.55
2017-07-01T15:11:31.066Z,18.09
2017-07-01T15:14:00.364Z,17.71
2017-07-01T15:16:44.281Z,17.96
2017-07-01T15:19:13.899Z,17.84
2017-07-01T15:21:47.630Z,18.22
2017-07-01T15:24:36.466Z,18.15
2017-07-01T15:27:14.270Z,18.00
2017-07-01T15:29:42.501Z,17.94
2017-07-01T15:32:10.145Z,17.74
2017-07-01T15:34:37.994Z,18.18
2017-07-01T15:37:06.292Z,18.19
2017-07-01T15:39:34.443Z,17.67
2017-07-01T15:42:02.091Z,17.68
2017-07-01T15:44:30.352Z,17.97
2017-07-01T15:46:57.978Z,17.75
2017-07-01T15:49:25.878Z,18.15
2017-07-01T15:51:53.881Z,17.80
2017-07-01T15:54:21.544Z,17.89
2017-07-01T15:56:49.658Z,18.04
2017-07-01T15:59:17.290Z,18.02
2017-07-01T16:01:51.876Z,18.14
2017-07-01T16:04:19.489Z,18.24
2017-07-01T16:06:47.097Z,18.67
2017-07-01T16:09:14.899Z,18.44
2017-07-01T16:11:42.509Z,18.86
2017-07-01T16:14:10.302Z,19.04
2017-07-01T16:16:37.943Z,19.56
2017-07-01T16:19:06.644Z,19.37
2017-07-01T16:21:34.343Z,19.64
2017-07-01T16:24:02.026Z,19.87
2017-07-01T16:26:29.691Z,19.40
2017-07-01T16:28:57.495Z,20.21
2017-07-01T16:31:25.158Z,20.19
2017-07-01T16:33:52.778Z,20.34
2017-07-01T16:36:20.420Z,20.45
2017-07-01T16:38:48.780Z,20.56
2017-07-01T16:41:17.103Z,20.50
2017-07-01T16:43:44.729Z,20.59
2017-07-01T16:46:12.350Z,20.74
2017-07-01T16:48:40.120Z,20.70
2017-07-01T16:51:07.738Z,20.91
2017-07-01T16:53:35.389Z,21.21
2017-07-01T16:56:03.073Z,21.46
2017-07-01T16:58:30.885Z,21.42
2017-07-01T17:00:59.286Z,21.52
2017-07-01T17:03:26.901Z,21.73
2017-07-01T17:05:55.120Z,21.98
2017-07-01T17:08:22.760Z,22.02
2017-07-01T17:10:50.359Z,22.36
2017-07-01T17:13:18.940Z,22.35
2017-07-01T17:15:46.628Z,22.60
2017-07-01T17:18:14.269Z,22.67
2017-07-01T17:20:41.897Z,22.35
2017-07-01T17:23:09.537Z,22.24
2017-07-01T17:25:37.187Z,22.61
2017-07-01T17:28:04.898Z,22.67
2017-07-01T17:30:33.434Z,22.82
2017-07-01T17:33:01.058Z,23.02
2017-07-01T17:35:28.721Z,23.19
2017-07-01T17:37:56.397Z,23.47
2017-07-01T17:40:24.001Z,23.73
2017-07-01T17:42:51.616Z,23.86
2017-07-01T17:45:20.065Z,24.14
2017-07-01T17:47:47.685Z,23.86
2017-07-01T17:50:15.308Z,24.03
2017-07-01T17:52:42.963Z,24.23
2017-07-01T17:55:11.236Z,24.26
2017-07-01T17:57:39.209Z,24.40
2017-07-01T18:00:07.167Z,24.34
2017-07-01T18:02:35.375Z,24.38
2017-07-01T18:05:02.955Z,24.50
2017-07-01T18:07:31.216Z,24.67
2017-07-01T18:09:58.803Z,24.81
2017-07-01T18:12:26.399Z,24.87
2017-07-01T18:14:54.678Z,25.00
2017-07-01T18:17:23.087Z,25.10
2017-07-01T18:19:51.136Z,25.19
2017-07-01T18:22:18.738Z,25.35
2017-07-01T18:24:47.290Z,25.65
2017-07-01T18:27:14.893Z,25.63
2017-07-01T18:29:42.621Z,25.57
2017-07-01T18:32:10.444Z,25.73
2017-07-01T18:34:38.124Z,25.86
2017-07-01T18:37:05.760Z,26.09
2017-07-01T18:39:33.428Z,25.95
2017-07-01T18:42:01.061Z,26.13
2017-07-01T18:44:28.692Z,26.40
2017-07-01T18:46:56.303Z,26.23
2017-07-01T18:49:24.646Z,26.73
2017-07-01T18:51:52.234Z,28.50
2017-07-01T18:54:19.869Z,29.24
2017-07-01T18:56:47.517Z,29.72
2017-07-01T18:59:15.160Z,30.35
2017-07-01T19:01:42.801Z,30.78
2017-07-01T19:04:10.402Z,31.09
2017-07-01T19:06:37.982Z,31.27
2017-07-01T19:09:07.926Z,31.57
2017-07-01T19:11:36.218Z,31.86
2017-07-01T19:14:03.818Z,32.30
2017-07-01T19:16:31.470Z,32.32
2017-07-01T19:18:59.063Z,32.52
2017-07-01T19:21:26.899Z,32.87
2017-07-01T19:23:54.551Z,32.93
2017-07-01T19:26:22.158Z,33.13
2017-07-01T19:28:50.461Z,33.17
2017-07-01T19:31:18.821Z,33.28
2017-07-01T19:33:46.502Z,33.28
2017-07-01T19:36:14.948Z,33.32
2017-07-01T19:38:42.755Z,33.32
2017-07-01T19:41:11.140Z,33.86
2017-07-01T19:43:38.793Z,34.28
2017-07-01T19:46:06.594Z,33.86
2017-07-01T19:48:34.174Z,33.92
2017-07-01T19:51:01.801Z,34.29
2017-07-01T19:53:29.484Z,34.57
2017-07-01T19:55:57.235Z,34.79
2017-07-01T19:58:24.890Z,34.82
2017-07-01T20:00:52.529Z,34.63
2017-07-01T20:03:20.138Z,34.54
2017-07-01T20:05:47.702Z,34.61
2017-07-01T20:08:15.834Z,34.85
2017-07-01T20:10:43.471Z,34.90
2017-07-01T20:13:11.096Z,34.86
2017-07-01T20:15:38.838Z,35.29
2017-07-01T20:18:06.421Z,35.52
2017-07-01T20:20:34.555Z,35.74
2017-07-01T20:23:04.747Z,36.10
2017-07-01T20:25:33.213Z,36.31
2017-07-01T20:28:00.894Z,36.11
2017-07-01T20:30:28.729Z,36.54
2017-07-01T20:32:56.351Z,36.43
2017-07-01T20:35:23.996Z,36.54
2017-07-01T20:37:52.505Z,36.46
2017-07-01T20:40:21.109Z,36.67
2017-07-01T20:42:49.576Z,36.82
2017-07-01T20:45:17.171Z,37.19
2017-07-01T20:47:45.713Z,36.87
2017-07-01T20:50:13.373Z,37.11
2017-07-01T20:52:41.075Z,37.77
2017-07-01T20:55:09.262Z,37.99
2017-07-01T20:57:36.826Z,38.02
2017-07-01T21:00:05.475Z,38.25
2017-07-01T21:02:33.095Z,38.53
2017-07-01T21:05:00.842Z,38.73
2017-07-01T21:07:28.433Z,39.28
2017-07-01T21:09:56.031Z,39.40
2017-07-01T21:12:24.172Z,39.80
2017-07-01T21:14:51.824Z,40.06
2017-07-01T21:17:19.430Z,40.22
2017-07-01T21:19:47.043Z,40.29
2017-07-01T21:22:15.575Z,40.47
2017-07-01T21:24:43.246Z,40.06
2017-07-01T21:27:10.907Z,39.68
2017-07-01T21:29:38.530Z,39.32
2017-07-01T21:32:06.416Z,39.63
2017-07-01T21:34:34.019Z,39.31
2017-07-01T21:37:01.565Z,39.38
2017-07-01T21:39:29.215Z,39.43
2017-07-01T21:41:57.280Z,39.52
2017-07-01T21:44:25.338Z,39.61
2017-07-01T21:46:52.993Z,39.80
2017-07-01T21:49:20.956Z,39.57
2017-07-01T21:51:49.150Z,39.43
2017-07-01T21:54:17.703Z,39.61
2017-07-01T21:56:45.371Z,39.47
2017-07-01T21:59:12.998Z,39.64
2017-07-01T22:01:40.688Z,40.01
2017-07-01T22:04:08.839Z,39.86
2017-07-01T22:06:36.497Z,40.45
2017-07-01T22:09:04.170Z,40.59
2017-07-01T22:11:31.734Z,41.10
2017-07-01T22:14:00.266Z,41.34
2017-07-01T22:16:28.284Z,41.80
2017-07-01T22:18:55.911Z,42.40
2017-07-01T22:21:23.468Z,42.92
2017-07-01T22:23:51.076Z,42.92
2017-07-01T22:26:18.670Z,43.32
2017-07-01T22:28:46.300Z,44.19
2017-07-01T22:31:14.148Z,44.78
2017-07-01T22:33:41.778Z,44.69
2017-07-01T22:36:09.448Z,45.18
2017-07-01T22:38:37.079Z,44.93
2017-07-01T22:41:04.664Z,45.39
2017-07-01T22:43:32.251Z,45.76
2017-07-01T22:46:00.150Z,45.60
2017-07-01T22:48:27.724Z,45.92
2017-07-01T22:50:55.365Z,46.28
2017-07-01T22:53:23.042Z,46.50
2017-07-01T22:55:50.650Z,46.58
2017-07-01T22:58:18.264Z,46.96
2017-07-01T23:00:45.849Z,47.41
2017-07-01T23:03:13.466Z,47.34
2017-07-01T23:05:41.122Z,47.44
2017-07-01T23:08:08.797Z,47.27
2017-07-01T23:10:36.391Z,47.26
2017-07-01T23:13:04.005Z,47.48
2017-07-01T23:15:31.605Z,47.17
2017-07-01T23:17:59.227Z,47.12
2017-07-01T23:20:27.560Z,47.10
2017-07-01T23:22:55.162Z,47.16
2017-07-01T23:25:22.745Z,47.34
2017-07-01T23:27:50.320Z,47.98
2017-07-01T23:30:18.775Z,48.37
2017-07-01T23:32:46.352Z,48.36
2017-07-01T23:35:13.978Z,48.17
2017-07-01T23:37:41.647Z,48.49
2017-07-01T23:40:10.347Z,48.59
2017-07-01T23:42:37.965Z,48.89
2017-07-01T23:45:06.488Z,49.48
2017-07-01T23:47:34.275Z,49.53
2017-07-01T23:50:02.039Z,49.76
2017-07-01T23:52:29.706Z,49.60
2017-07-01T23:54:57.484Z,50.27
2017-07-01T23:57:25.082Z,50.12
2017-07-01T23:59:52.691Z,50.21
